createdAt,value
2023-03-17T00:01:08.202Z,1.31
2023-03-17T00:05:24.181Z,1.31
2023-03-17T00:09:26.845Z,1.30
2023-03-17T00:13:32.077Z,1.32
2023-03-17T00:17:34.742Z,1.33
2023-03-17T00:21:38.901Z,1.26
2023-03-17T00:25:43.235Z,1.17
2023-03-17T00:29:46.977Z,1.13
2023-03-17T00:33:52.182Z,1.14
2023-03-17T00:37:58.396Z,1.18
2023-03-17T00:42:00.996Z,1.13
2023-03-17T00:46:10.987Z,1.12
2023-03-17T00:50:15.965Z,1.02
2023-03-17T00:54:21.571Z,1.03
2023-03-17T00:58:28.817Z,1.07
2023-03-17T01:02:32.287Z,0.98
2023-03-17T01:06:34.976Z,0.91
2023-03-17T01:10:39.224Z,0.93
2023-03-17T01:14:42.265Z,0.92
2023-03-17T01:18:45.638Z,0.87
2023-03-17T01:22:49.022Z,0.81
2023-03-17T01:26:53.024Z,0.75
2023-03-17T01:30:56.764Z,0.73
2023-03-17T01:34:59.810Z,0.74
2023-03-17T01:39:03.386Z,0.71
2023-03-17T01:43:19.719Z,0.71
2023-03-17T01:47:23.696Z,0.81
2023-03-17T01:51:33.004Z,0.91
2023-03-17T01:55:35.889Z,0.90
2023-03-17T01:59:45.451Z,0.88
2023-03-17T02:03:49.478Z,0.91
2023-03-17T02:07:52.910Z,0.89
2023-03-17T02:11:56.452Z,0.85
2023-03-17T02:16:00.437Z,0.84
2023-03-17T02:20:29.377Z,0.83
2023-03-17T02:24:38.576Z,0.76
2023-03-17T02:28:41.224Z,0.80
2023-03-17T02:32:44.190Z,0.80
2023-03-17T02:36:47.529Z,0.71
2023-03-17T02:40:51.944Z,0.69
2023-03-17T02:44:54.959Z,0.69
2023-03-17T02:48:57.818Z,0.73
2023-03-17T02:53:00.754Z,0.72
2023-03-17T02:57:05.225Z,0.68
2023-03-17T03:01:09.127Z,0.68
2023-03-17T03:05:11.786Z,0.61
2023-03-17T03:09:15.145Z,0.52
2023-03-17T03:13:19.112Z,0.41
2023-03-17T03:17:22.126Z,0.38
2023-03-17T03:21:25.028Z,0.39
2023-03-17T03:25:27.912Z,0.50
2023-03-17T03:29:32.039Z,0.50
2023-03-17T03:33:34.928Z,0.43
2023-03-17T03:37:37.601Z,0.43
2023-03-17T03:41:41.202Z,0.46
2023-03-17T03:45:45.219Z,0.34
2023-03-17T03:49:47.897Z,0.36
2023-03-17T03:53:50.877Z,0.35
2023-03-17T03:57:53.538Z,0.37
2023-03-17T04:01:57.639Z,0.39
2023-03-17T04:06:00.435Z,0.31
2023-03-17T04:10:03.229Z,0.24
2023-03-17T04:14:06.430Z,0.24
2023-03-17T04:18:10.579Z,0.26
2023-03-17T04:22:13.390Z,0.21
2023-03-17T04:26:17.798Z,0.13
2023-03-17T04:30:20.577Z,0.07
2023-03-17T04:34:24.815Z,-0.06
2023-03-17T04:38:27.474Z,-0.18
2023-03-17T04:42:30.475Z,-0.21
2023-03-17T04:46:33.201Z,-0.12
2023-03-17T04:50:37.152Z,0.01
2023-03-17T04:54:39.849Z,-0.02
2023-03-17T04:58:42.602Z,0.01
2023-03-17T05:02:45.279Z,0.05
2023-03-17T05:06:49.285Z,0.04
2023-03-17T05:10:52.657Z,0.37
2023-03-17T05:14:55.467Z,1.08
2023-03-17T05:18:58.128Z,1.67
2023-03-17T05:23:02.130Z,1.27
2023-03-17T05:27:04.991Z,0.76
2023-03-17T05:31:10.846Z,0.63
2023-03-17T05:35:14.268Z,0.64
2023-03-17T05:39:18.234Z,0.62
2023-03-17T05:43:22.227Z,0.63
2023-03-17T05:47:24.939Z,0.63
2023-03-17T05:51:28.301Z,0.63
2023-03-17T05:55:32.368Z,0.64
2023-03-17T05:59:35.252Z,0.62
2023-03-17T06:03:39.077Z,0.62
2023-03-17T06:07:53.086Z,0.69
2023-03-17T06:11:59.353Z,0.77
2023-03-17T06:16:02.211Z,0.83
2023-03-17T06:20:05.439Z,0.91
2023-03-17T06:24:09.590Z,1.06
2023-03-17T06:28:13.611Z,1.08
2023-03-17T06:32:20.599Z,1.09
2023-03-17T06:36:23.637Z,1.15
2023-03-17T06:40:26.482Z,1.13
2023-03-17T06:44:30.465Z,1.23
2023-03-17T06:48:34.007Z,1.40
2023-03-17T06:52:37.090Z,1.64
2023-03-17T06:56:39.781Z,1.78
2023-03-17T07:00:45.481Z,1.92
2023-03-17T07:04:48.399Z,2.13
2023-03-17T07:08:52.386Z,2.47
2023-03-17T07:12:55.318Z,2.73
2023-03-17T07:17:00.321Z,3.00
2023-03-17T07:21:03.518Z,3.09
2023-03-17T07:25:07.879Z,3.16
2023-03-17T07:29:10.494Z,3.36
2023-03-17T07:33:14.683Z,3.41
2023-03-17T07:37:17.605Z,3.49
2023-03-17T07:41:20.430Z,3.49
2023-03-17T07:45:23.383Z,3.74
2023-03-17T07:49:40.522Z,3.85
2023-03-17T07:53:45.351Z,4.09
2023-03-17T07:57:48.075Z,4.31
2023-03-17T08:01:51.869Z,4.62
2023-03-17T08:05:56.053Z,4.86
2023-03-17T08:09:58.880Z,5.06
2023-03-17T08:14:02.628Z,5.19
2023-03-17T08:18:05.343Z,5.26
2023-03-17T08:22:09.868Z,5.53
2023-03-17T08:26:14.334Z,6.03
2023-03-17T08:30:17.527Z,6.14
2023-03-17T08:34:25.275Z,6.33
2023-03-17T08:38:29.300Z,6.61
2023-03-17T08:42:33.086Z,6.77
2023-03-17T08:46:36.240Z,6.98
2023-03-17T08:50:38.958Z,7.07
2023-03-17T08:54:43.185Z,7.17
2023-03-17T08:58:46.815Z,7.31
2023-03-17T09:02:50.135Z,7.39
2023-03-17T09:07:03.454Z,7.49
2023-03-17T09:11:10.666Z,7.69
2023-03-17T09:15:13.762Z,8.04
2023-03-17T09:19:17.830Z,8.58
2023-03-17T09:23:20.842Z,8.94
2023-03-17T09:27:25.251Z,9.12
2023-03-17T09:31:27.970Z,9.30
2023-03-17T09:35:31.587Z,9.58
2023-03-17T09:39:36.445Z,9.75
2023-03-17T09:43:50.170Z,9.76
2023-03-17T09:48:18.215Z,9.58
2023-03-17T09:52:28.313Z,9.71
2023-03-17T09:56:33.719Z,10.00
2023-03-17T10:00:38.216Z,10.21
2023-03-17T10:04:42.731Z,10.25
2023-03-17T10:08:52.450Z,10.30
2023-03-17T10:13:03.879Z,10.51
2023-03-17T10:17:16.374Z,10.62
2023-03-17T10:21:22.509Z,10.89
2023-03-17T10:25:29.818Z,11.30
2023-03-17T10:29:32.969Z,11.51
2023-03-17T10:33:37.017Z,11.44
2023-03-17T10:37:43.294Z,11.67
2023-03-17T10:41:56.963Z,11.97
2023-03-17T10:46:03.213Z,11.71
2023-03-17T10:50:18.939Z,11.71
2023-03-17T10:54:25.249Z,11.92
2023-03-17T10:58:38.445Z,11.97
2023-03-17T11:02:46.871Z,12.14
2023-03-17T11:06:52.422Z,12.34
2023-03-17T11:10:57.610Z,12.79
2023-03-17T11:15:02.197Z,13.14
2023-03-17T11:19:09.208Z,13.38
2023-03-17T11:23:27.311Z,13.70
2023-03-17T11:27:33.690Z,13.79
2023-03-17T11:31:46.803Z,13.96
2023-03-17T11:35:55.892Z,14.18
2023-03-17T11:40:13.214Z,14.63
2023-03-17T11:44:40.364Z,14.67
2023-03-17T11:48:51.103Z,14.70
2023-03-17T11:53:05.579Z,15.20
2023-03-17T11:57:16.257Z,15.68
2023-03-17T12:01:27.180Z,15.75
2023-03-17T12:05:31.625Z,15.84
2023-03-17T12:09:40.177Z,15.98
2023-03-17T12:13:47.641Z,16.15
2023-03-17T12:17:55.263Z,16.37
2023-03-17T12:22:02.223Z,16.54
2023-03-17T12:26:07.473Z,17.04
2023-03-17T12:30:23.076Z,17.42
2023-03-17T12:34:32.120Z,17.56
2023-03-17T12:38:39.525Z,17.20
2023-03-17T12:42:53.726Z,16.99
2023-03-17T12:47:24.996Z,16.93
2023-03-17T12:51:50.836Z,17.52
2023-03-17T12:55:57.132Z,17.22
2023-03-17T13:00:06.186Z,17.64
2023-03-17T13:04:19.192Z,17.91
2023-03-17T13:08:28.285Z,17.53
2023-03-17T13:13:08.906Z,17.26
2023-03-17T13:17:35.793Z,17.06
2023-03-17T13:21:40.134Z,17.32
2023-03-17T13:25:53.334Z,17.10
2023-03-17T13:29:56.561Z,17.11
2023-03-17T13:34:13.122Z,17.48
2023-03-17T13:38:42.140Z,17.64
2023-03-17T13:42:59.639Z,17.94
2023-03-17T13:47:29.552Z,18.28
2023-03-17T13:51:35.143Z,17.46
2023-03-17T13:55:43.177Z,17.06
2023-03-17T13:59:58.658Z,16.39
2023-03-17T14:04:08.817Z,16.19
2023-03-17T14:08:18.351Z,16.49
2023-03-17T14:12:28.333Z,16.91
2023-03-17T14:16:34.160Z,16.95
2023-03-17T14:20:37.005Z,16.85
2023-03-17T14:24:40.991Z,16.35
2023-03-17T14:28:45.159Z,15.99
2023-03-17T14:32:52.159Z,15.68
2023-03-17T14:36:54.838Z,15.42
2023-03-17T14:41:02.932Z,15.57
2023-03-17T14:45:09.589Z,15.71
2023-03-17T14:49:18.605Z,15.71
2023-03-17T14:53:24.073Z,15.95
2023-03-17T14:57:29.052Z,15.84
2023-03-17T15:01:38.726Z,15.85
2023-03-17T15:05:43.891Z,15.68
2023-03-17T15:09:46.604Z,15.58
2023-03-17T15:13:50.746Z,15.83
2023-03-17T15:17:57.904Z,15.80
2023-03-17T15:22:00.717Z,15.67
2023-03-17T15:26:09.392Z,15.75
2023-03-17T15:30:13.690Z,15.66
2023-03-17T15:34:18.093Z,15.62
2023-03-17T15:38:21.549Z,15.54
2023-03-17T15:42:27.012Z,15.43
2023-03-17T15:46:32.568Z,15.22
2023-03-17T15:50:36.698Z,15.16
2023-03-17T15:54:39.338Z,15.00
2023-03-17T15:58:42.070Z,14.97
2023-03-17T16:02:45.492Z,14.96
2023-03-17T16:06:49.845Z,15.28
2023-03-17T16:10:53.027Z,15.40
2023-03-17T16:14:55.960Z,15.26
2023-03-17T16:18:59.143Z,15.28
2023-03-17T16:23:08.486Z,15.41
2023-03-17T16:27:15.745Z,15.34
2023-03-17T16:31:24.892Z,15.32
2023-03-17T16:35:27.743Z,15.27
2023-03-17T16:39:32.155Z,15.45
2023-03-17T16:43:37.805Z,15.28
2023-03-17T16:47:40.338Z,14.76
2023-03-17T16:51:43.528Z,14.47
2023-03-17T16:55:47.997Z,14.22
2023-03-17T16:59:51.148Z,13.74
2023-03-17T17:03:54.291Z,13.55
2023-03-17T17:07:58.107Z,13.19
2023-03-17T17:12:02.076Z,12.96
2023-03-17T17:16:04.868Z,12.80
2023-03-17T17:20:13.446Z,12.54
2023-03-17T17:24:16.521Z,12.14
2023-03-17T17:28:23.103Z,12.17
2023-03-17T17:32:25.744Z,12.13
2023-03-17T17:36:28.878Z,12.00
2023-03-17T17:40:32.778Z,11.92
2023-03-17T17:44:37.249Z,11.85
2023-03-17T17:48:41.051Z,11.56
2023-03-17T17:52:43.760Z,11.44
2023-03-17T17:56:47.177Z,11.37
2023-03-17T18:00:52.588Z,11.35
2023-03-17T18:04:55.752Z,11.30
2023-03-17T18:08:59.299Z,11.11
2023-03-17T18:13:02.111Z,10.95
2023-03-17T18:17:07.054Z,10.76
2023-03-17T18:21:10.907Z,10.60
2023-03-17T18:25:15.396Z,10.44
2023-03-17T18:29:18.387Z,10.23
2023-03-17T18:33:22.566Z,10.10
2023-03-17T18:37:25.731Z,10.08
2023-03-17T18:41:29.210Z,10.12
2023-03-17T18:45:32.097Z,10.07
2023-03-17T18:49:36.232Z,9.98
2023-03-17T18:53:39.236Z,9.93
2023-03-17T18:57:44.753Z,9.86
2023-03-17T19:01:47.799Z,9.76
2023-03-17T19:05:51.897Z,9.59
2023-03-17T19:09:55.145Z,9.40
2023-03-17T19:13:58.345Z,9.28
2023-03-17T19:18:01.062Z,9.21
2023-03-17T19:22:06.487Z,9.16
2023-03-17T19:26:10.345Z,9.07
2023-03-17T19:30:14.553Z,8.90
2023-03-17T19:34:17.384Z,8.73
2023-03-17T19:38:21.586Z,8.65
2023-03-17T19:42:24.467Z,8.57
2023-03-17T19:46:27.325Z,8.55
2023-03-17T19:50:32.787Z,8.46
2023-03-17T19:54:42.037Z,8.36
2023-03-17T19:58:45.165Z,8.29
2023-03-17T20:02:48.072Z,8.18
2023-03-17T20:06:55.583Z,8.08
2023-03-17T20:10:59.675Z,8.08
2023-03-17T20:15:02.881Z,8.01
2023-03-17T20:19:06.002Z,7.78
2023-03-17T20:23:08.777Z,7.66
2023-03-17T20:27:15.257Z,7.56
2023-03-17T20:31:18.765Z,7.48
2023-03-17T20:35:21.480Z,7.38
2023-03-17T20:39:24.257Z,7.25
2023-03-17T20:43:28.389Z,7.18
2023-03-17T20:47:31.973Z,7.03
2023-03-17T20:51:35.933Z,6.90
2023-03-17T20:55:38.644Z,6.81
2023-03-17T20:59:43.865Z,6.76
2023-03-17T21:03:47.123Z,6.66
2023-03-17T21:07:50.170Z,6.61
2023-03-17T21:11:52.853Z,6.48
2023-03-17T21:15:57.064Z,6.38
2023-03-17T21:19:59.969Z,6.22
2023-03-17T21:24:03.068Z,6.11
2023-03-17T21:28:06.213Z,5.96
2023-03-17T21:32:10.926Z,5.90
2023-03-17T21:36:13.645Z,5.74
2023-03-17T21:40:16.955Z,5.67
2023-03-17T21:44:20.064Z,5.66
2023-03-17T21:48:24.044Z,5.57
2023-03-17T21:52:27.034Z,5.53
2023-03-17T21:56:29.872Z,5.54
2023-03-17T22:00:39.388Z,5.54
2023-03-17T22:04:48.922Z,5.46
2023-03-17T22:08:51.582Z,5.37
2023-03-17T22:12:54.328Z,5.26
2023-03-17T22:16:57.442Z,5.17
2023-03-17T22:21:01.737Z,5.04
2023-03-17T22:25:05.551Z,4.95
2023-03-17T22:29:08.197Z,4.89
2023-03-17T22:33:11.618Z,4.80
2023-03-17T22:37:15.618Z,4.72
2023-03-17T22:41:20.745Z,4.57
2023-03-17T22:45:23.502Z,4.46
2023-03-17T22:49:26.221Z,4.23
2023-03-17T22:53:31.547Z,4.11
2023-03-17T22:57:34.539Z,4.18
2023-03-17T23:01:37.385Z,4.21
2023-03-17T23:05:40.148Z,4.21
2023-03-17T23:09:45.288Z,4.11
2023-03-17T23:13:48.799Z,3.90
2023-03-17T23:17:54.055Z,3.84
2023-03-17T23:21:56.834Z,3.76
2023-03-17T23:26:00.852Z,3.63
2023-03-17T23:30:03.861Z,3.56
2023-03-17T23:34:07.637Z,3.52
2023-03-17T23:38:10.379Z,3.47
2023-03-17T23:42:14.444Z,3.42
2023-03-17T23:46:17.238Z,3.35
2023-03-17T23:50:20.904Z,3.30
2023-03-17T23:54:24.109Z,3.20
2023-03-17T23:58:28.501Z,3.13
